createdAt,value
2018-04-30T00:01:30.572Z,99.90
2018-04-30T00:03:58.814Z,99.90
2018-04-30T00:06:26.290Z,99.90
2018-04-30T00:08:53.765Z,99.90
2018-04-30T00:11:22.008Z,99.90
2018-04-30T00:13:49.478Z,99.90
2018-04-30T00:16:16.960Z,99.90
2018-04-30T00:18:45.193Z,99.90
2018-04-30T00:21:12.668Z,99.90
2018-04-30T00:23:40.138Z,99.90
2018-04-30T00:26:08.383Z,99.90
2018-04-30T00:28:35.845Z,99.90
2018-04-30T00:31:04.101Z,99.90
2018-04-30T00:33:31.619Z,99.90
2018-04-30T00:35:59.045Z,99.90
2018-04-30T00:38:26.521Z,99.90
2018-04-30T00:40:54.035Z,99.90
2018-04-30T00:43:21.502Z,99.90
2018-04-30T00:45:48.977Z,99.90
2018-04-30T00:48:16.449Z,99.90
2018-04-30T00:50:43.931Z,99.90
2018-04-30T00:53:12.169Z,99.90
2018-04-30T00:55:39.647Z,99.90
2018-04-30T00:58:07.152Z,99.90
2018-04-30T01:00:34.610Z,99.90
2018-04-30T01:03:02.089Z,99.90
2018-04-30T01:05:29.561Z,99.90
2018-04-30T01:07:57.034Z,99.90
2018-04-30T01:10:24.502Z,99.90
2018-04-30T01:12:51.984Z,99.90
2018-04-30T01:15:20.214Z,99.90
2018-04-30T01:17:47.689Z,99.90
2018-04-30T01:20:15.149Z,99.90
2018-04-30T01:22:42.626Z,99.90
2018-04-30T01:25:10.863Z,99.90
2018-04-30T01:27:38.338Z,99.90
2018-04-30T01:30:05.805Z,99.90
2018-04-30T01:32:33.294Z,99.90
2018-04-30T01:35:00.767Z,99.90
2018-04-30T01:37:28.256Z,99.90
2018-04-30T01:39:55.717Z,99.90
2018-04-30T01:42:23.189Z,99.90
2018-04-30T01:44:50.661Z,99.90
2018-04-30T01:47:18.147Z,99.90
2018-04-30T01:49:45.615Z,99.90
2018-04-30T01:52:13.096Z,99.90
2018-04-30T01:54:40.566Z,99.90
2018-04-30T01:57:08.047Z,99.90
2018-04-30T01:59:35.510Z,99.90
2018-04-30T02:02:03.706Z,99.90
2018-04-30T02:04:32.014Z,99.90
2018-04-30T02:06:59.506Z,99.90
2018-04-30T02:09:26.974Z,99.90
2018-04-30T02:11:54.457Z,99.90
2018-04-30T02:14:22.702Z,99.90
2018-04-30T02:16:50.185Z,99.90
2018-04-30T02:19:18.421Z,99.90
2018-04-30T02:21:48.739Z,99.90
2018-04-30T02:24:16.201Z,99.90
2018-04-30T02:26:43.673Z,99.90
2018-04-30T02:29:11.149Z,99.90
2018-04-30T02:31:38.627Z,99.90
2018-04-30T02:34:06.851Z,99.90
2018-04-30T02:36:34.330Z,99.90
2018-04-30T02:39:01.797Z,99.90
2018-04-30T02:41:29.269Z,99.90
2018-04-30T02:43:57.515Z,99.90
2018-04-30T02:46:24.986Z,99.90
2018-04-30T02:48:52.456Z,99.90
2018-04-30T02:51:20.706Z,99.90
2018-04-30T02:53:48.168Z,99.90
2018-04-30T02:56:15.634Z,99.90
2018-04-30T02:58:43.173Z,99.90
2018-04-30T03:01:11.347Z,99.90
2018-04-30T03:03:38.830Z,99.90
2018-04-30T03:06:06.286Z,99.90
2018-04-30T03:08:33.765Z,99.90
2018-04-30T03:11:02.004Z,99.90
2018-04-30T03:13:29.474Z,99.90
2018-04-30T03:15:56.940Z,99.90
2018-04-30T03:18:24.422Z,99.90
2018-04-30T03:20:53.040Z,99.90
2018-04-30T03:23:20.509Z,99.90
2018-04-30T03:25:47.981Z,99.90
2018-04-30T03:28:15.457Z,99.90
2018-04-30T03:30:42.921Z,99.90
2018-04-30T03:33:10.392Z,99.90
2018-04-30T03:35:38.627Z,99.90
2018-04-30T03:38:06.097Z,99.90
2018-04-30T03:40:33.627Z,99.90
2018-04-30T03:43:01.092Z,99.90
2018-04-30T03:45:28.644Z,99.90
2018-04-30T03:47:56.113Z,99.90
2018-04-30T03:50:23.580Z,99.90
2018-04-30T03:52:51.056Z,99.90
2018-04-30T03:55:18.522Z,99.90
2018-04-30T03:57:46.006Z,99.90
2018-04-30T04:00:26.176Z,99.90
2018-04-30T04:06:07.921Z,99.90
2018-04-30T04:08:35.398Z,99.90
2018-04-30T04:11:02.876Z,99.90
2018-04-30T04:13:30.352Z,99.90
2018-04-30T04:15:58.577Z,99.90
2018-04-30T04:18:26.048Z,99.90
2018-04-30T04:20:53.513Z,99.90
2018-04-30T04:23:20.980Z,99.90
2018-04-30T04:25:48.449Z,99.90
2018-04-30T04:28:15.940Z,99.90
2018-04-30T04:30:43.416Z,99.90
2018-04-30T04:33:10.898Z,99.90
2018-04-30T04:35:38.359Z,99.90
2018-04-30T04:38:06.613Z,99.90
2018-04-30T04:40:34.071Z,99.90
2018-04-30T04:43:01.556Z,99.90
2018-04-30T04:45:29.025Z,99.90
2018-04-30T04:47:56.496Z,99.90
2018-04-30T04:50:23.955Z,99.90
2018-04-30T04:52:51.439Z,99.90
2018-04-30T04:55:19.677Z,99.90
2018-04-30T04:57:47.154Z,99.90
2018-04-30T05:00:15.388Z,99.90
2018-04-30T05:02:42.864Z,99.90
2018-04-30T05:05:10.328Z,99.90
2018-04-30T05:07:37.805Z,99.90
2018-04-30T05:10:06.046Z,99.90
2018-04-30T05:12:33.548Z,99.90
2018-04-30T05:15:01.782Z,99.90
2018-04-30T05:17:29.956Z,99.90
2018-04-30T05:19:57.440Z,99.90
2018-04-30T05:22:24.912Z,99.90
2018-04-30T05:24:53.161Z,99.90
2018-04-30T05:27:20.629Z,99.90
2018-04-30T05:29:48.113Z,99.90
2018-04-30T05:32:16.346Z,99.90
2018-04-30T05:34:43.832Z,99.90
2018-04-30T05:37:11.288Z,99.90
2018-04-30T05:39:38.844Z,99.90
2018-04-30T05:42:06.313Z,99.90
2018-04-30T05:44:33.919Z,99.90
2018-04-30T05:47:01.381Z,99.90
2018-04-30T05:49:28.862Z,99.90
2018-04-30T05:51:56.332Z,99.90
2018-04-30T05:54:23.813Z,99.90
2018-04-30T05:56:51.278Z,99.90
2018-04-30T05:59:19.522Z,99.90
2018-04-30T06:01:46.988Z,99.90
2018-04-30T06:04:14.465Z,99.90
2018-04-30T06:06:46.935Z,99.90
2018-04-30T06:09:14.861Z,99.90
2018-04-30T06:11:42.360Z,99.90
2018-04-30T06:14:09.830Z,99.90
2018-04-30T06:16:37.541Z,99.90
2018-04-30T06:19:05.014Z,99.90
2018-04-30T06:21:32.858Z,99.90
2018-04-30T06:24:00.329Z,99.90
2018-04-30T06:26:27.787Z,99.90
2018-04-30T06:28:55.261Z,99.90
2018-04-30T06:31:22.728Z,99.90
2018-04-30T06:33:50.203Z,99.90
2018-04-30T06:36:17.673Z,99.90
2018-04-30T06:38:45.915Z,99.90
2018-04-30T06:41:13.384Z,99.90
2018-04-30T06:43:40.863Z,99.90
2018-04-30T06:46:08.341Z,99.90
2018-04-30T06:48:36.593Z,99.90
2018-04-30T06:51:04.057Z,99.90
2018-04-30T06:53:31.568Z,99.90
2018-04-30T06:55:59.002Z,99.90
2018-04-30T06:58:26.482Z,99.90
2018-04-30T07:00:54.741Z,99.90
2018-04-30T07:03:22.216Z,99.90
2018-04-30T07:05:49.672Z,99.90
2018-04-30T07:08:17.152Z,99.90
2018-04-30T07:10:44.630Z,99.90
2018-04-30T07:13:12.102Z,99.90
2018-04-30T07:15:39.566Z,99.90
2018-04-30T07:18:07.808Z,99.90
2018-04-30T07:20:35.656Z,99.90
2018-04-30T07:23:03.123Z,99.90
2018-04-30T07:25:30.584Z,99.90
2018-04-30T07:27:58.041Z,99.90
2018-04-30T07:30:25.508Z,99.90
2018-04-30T07:32:52.976Z,99.90
2018-04-30T07:35:20.452Z,99.90
2018-04-30T07:37:47.917Z,99.90
2018-04-30T07:40:16.152Z,99.90
2018-04-30T07:42:43.618Z,99.90
2018-04-30T07:45:11.090Z,99.90
2018-04-30T07:47:38.560Z,99.90
2018-04-30T07:50:06.028Z,99.90
2018-04-30T07:52:34.252Z,99.90
2018-04-30T07:55:01.723Z,99.90
2018-04-30T07:57:29.181Z,99.90
2018-04-30T07:59:56.761Z,99.90
2018-04-30T08:02:24.226Z,99.90
2018-04-30T08:04:51.698Z,99.90
2018-04-30T08:07:19.149Z,99.90
2018-04-30T08:09:46.612Z,99.90
2018-04-30T08:12:14.840Z,99.90
2018-04-30T08:14:42.326Z,99.90
2018-04-30T08:17:09.780Z,99.90
2018-04-30T08:19:37.257Z,99.90
2018-04-30T08:22:04.713Z,99.90
2018-04-30T08:24:32.181Z,99.90
2018-04-30T08:26:59.688Z,99.90
2018-04-30T08:29:27.165Z,99.90
2018-04-30T08:31:54.625Z,99.90
2018-04-30T08:34:22.096Z,99.90
2018-04-30T08:36:49.557Z,99.90
2018-04-30T08:39:17.031Z,99.90
2018-04-30T08:41:44.489Z,99.90
2018-04-30T08:44:11.968Z,99.90
2018-04-30T08:46:40.188Z,99.90
2018-04-30T08:49:07.660Z,99.90
2018-04-30T08:51:35.119Z,99.90
2018-04-30T08:54:02.597Z,99.90
2018-04-30T08:56:30.063Z,99.90
2018-04-30T08:58:57.534Z,99.90
2018-04-30T09:01:25.766Z,99.90
2018-04-30T09:03:53.237Z,99.90
2018-04-30T09:06:20.697Z,99.90
2018-04-30T09:08:48.160Z,99.90
2018-04-30T09:11:15.621Z,99.90
2018-04-30T09:13:43.095Z,99.90
2018-04-30T09:16:11.317Z,99.90
2018-04-30T09:18:38.786Z,99.90
2018-04-30T09:21:06.236Z,99.90
2018-04-30T09:23:33.700Z,99.90
2018-04-30T09:26:01.177Z,99.90
2018-04-30T09:28:28.630Z,99.90
2018-04-30T09:30:56.110Z,99.90
2018-04-30T09:33:23.559Z,99.90
2018-04-30T09:35:51.030Z,99.90
2018-04-30T09:38:18.486Z,99.90
2018-04-30T09:40:45.963Z,99.90
2018-04-30T09:43:14.192Z,99.90
2018-04-30T09:45:41.656Z,99.90
2018-04-30T09:48:09.116Z,99.90
2018-04-30T09:50:36.593Z,99.90
2018-04-30T09:53:04.062Z,99.90
2018-04-30T09:55:31.519Z,99.90
2018-04-30T09:57:59.785Z,99.90
2018-04-30T10:00:27.220Z,99.90
2018-04-30T10:02:54.682Z,99.90
2018-04-30T10:05:22.153Z,99.90
2018-04-30T10:07:49.603Z,99.90
2018-04-30T10:10:17.088Z,99.90
2018-04-30T10:12:44.540Z,99.90
2018-04-30T10:15:12.008Z,99.90
2018-04-30T10:17:40.246Z,99.90
2018-04-30T10:20:07.714Z,99.90
2018-04-30T10:22:35.244Z,99.90
2018-04-30T10:25:02.797Z,99.90
2018-04-30T10:27:30.261Z,99.90
2018-04-30T10:29:57.726Z,99.90
2018-04-30T10:32:25.186Z,99.90
2018-04-30T10:34:52.674Z,99.90
2018-04-30T10:37:20.126Z,99.90
2018-04-30T10:39:47.598Z,99.90
2018-04-30T10:42:15.058Z,99.90
2018-04-30T10:44:42.527Z,99.90
2018-04-30T10:47:09.976Z,99.90
2018-04-30T10:49:37.457Z,99.90
2018-04-30T10:52:05.688Z,99.90
2018-04-30T10:54:33.164Z,99.90
2018-04-30T10:57:00.616Z,99.90
2018-04-30T10:59:28.097Z,99.90
2018-04-30T11:01:55.577Z,99.90
2018-04-30T11:04:23.046Z,99.90
2018-04-30T11:06:50.524Z,99.90
2018-04-30T11:09:18.009Z,99.90
2018-04-30T11:11:45.469Z,99.90
2018-04-30T11:14:12.936Z,99.90
2018-04-30T11:16:40.393Z,99.90
2018-04-30T11:19:07.848Z,99.90
2018-04-30T11:21:35.329Z,99.90
2018-04-30T11:24:03.553Z,99.90
2018-04-30T11:26:31.025Z,99.90
2018-04-30T11:28:58.487Z,99.90
2018-04-30T11:31:25.965Z,99.90
2018-04-30T11:33:53.428Z,99.90
2018-04-30T11:36:20.893Z,99.90
2018-04-30T11:38:49.483Z,99.90
2018-04-30T11:41:17.723Z,99.90
2018-04-30T11:43:45.180Z,99.90
2018-04-30T11:46:12.641Z,99.90
2018-04-30T11:48:40.108Z,99.90
2018-04-30T11:51:07.606Z,99.90
2018-04-30T11:53:35.083Z,99.90
2018-04-30T11:56:02.549Z,99.90
2018-04-30T11:58:30.014Z,99.90
2018-04-30T12:00:57.482Z,99.90
2018-04-30T12:03:25.019Z,99.90
2018-04-30T12:05:52.488Z,99.90
2018-04-30T12:08:19.973Z,99.90
2018-04-30T12:10:47.440Z,99.90
2018-04-30T12:13:14.903Z,99.90
2018-04-30T12:15:42.369Z,99.90
2018-04-30T12:18:10.597Z,99.90
2018-04-30T12:20:38.073Z,99.90
2018-04-30T12:23:05.533Z,99.90
2018-04-30T12:25:33.009Z,99.90
2018-04-30T12:28:00.468Z,99.90
2018-04-30T12:30:27.949Z,99.90
2018-04-30T12:32:56.185Z,99.90
2018-04-30T12:35:23.660Z,99.90
2018-04-30T12:37:51.133Z,99.90
2018-04-30T12:40:18.602Z,99.90
2018-04-30T12:42:46.829Z,99.90
2018-04-30T12:45:14.319Z,99.90
2018-04-30T12:47:41.778Z,99.90
2018-04-30T12:50:10.072Z,99.90
2018-04-30T12:52:38.308Z,99.90
2018-04-30T12:55:05.792Z,99.90
2018-04-30T12:57:33.259Z,99.90
2018-04-30T13:00:01.511Z,99.90
2018-04-30T13:02:29.116Z,99.90
2018-04-30T13:04:56.513Z,99.90
2018-04-30T13:07:23.969Z,99.90
2018-04-30T13:09:51.441Z,99.90
2018-04-30T13:12:18.909Z,99.90
2018-04-30T13:14:46.378Z,99.90
2018-04-30T13:17:13.864Z,99.90
2018-04-30T13:19:42.085Z,99.80
2018-04-30T13:22:10.320Z,99.90
2018-04-30T13:24:37.781Z,99.90
2018-04-30T13:27:05.268Z,99.90
2018-04-30T13:29:32.743Z,99.90
2018-04-30T13:32:00.205Z,99.90
2018-04-30T13:34:27.731Z,99.90
2018-04-30T13:36:55.207Z,99.90
2018-04-30T13:39:22.662Z,99.60
2018-04-30T13:41:50.133Z,99.30
2018-04-30T13:44:17.585Z,98.90
2018-04-30T13:46:45.058Z,98.00
2018-04-30T13:49:12.513Z,98.60
2018-04-30T13:51:39.991Z,98.70
2018-04-30T13:54:07.463Z,98.00
2018-04-30T13:56:34.933Z,98.20
2018-04-30T13:59:03.152Z,97.50
2018-04-30T14:01:30.628Z,97.40
2018-04-30T14:03:58.084Z,98.30
2018-04-30T14:06:25.557Z,98.20
2018-04-30T14:08:53.022Z,97.60
2018-04-30T14:11:20.493Z,96.80
2018-04-30T14:13:48.723Z,97.50
2018-04-30T14:16:16.184Z,97.50
2018-04-30T14:18:43.654Z,97.20
2018-04-30T14:21:11.135Z,97.10
2018-04-30T14:23:38.592Z,96.50
2018-04-30T14:26:06.062Z,97.60
2018-04-30T14:28:34.293Z,97.30
2018-04-30T14:31:01.758Z,97.10
2018-04-30T14:33:29.269Z,96.50
2018-04-30T14:35:57.504Z,96.20
2018-04-30T14:38:24.993Z,96.20
2018-04-30T14:40:52.437Z,96.20
2018-04-30T14:43:19.908Z,96.60
2018-04-30T14:45:48.139Z,96.10
2018-04-30T14:48:15.608Z,96.00
2018-04-30T14:50:43.171Z,95.40
2018-04-30T14:53:10.638Z,95.80
2018-04-30T14:55:38.385Z,95.20
2018-04-30T14:58:05.862Z,95.50
2018-04-30T15:00:33.329Z,95.70
2018-04-30T15:03:00.849Z,95.10
2018-04-30T15:05:28.309Z,95.00
2018-04-30T15:07:55.760Z,94.80
2018-04-30T15:10:23.245Z,95.00
2018-04-30T15:12:50.724Z,95.00
2018-04-30T15:15:18.644Z,95.60
2018-04-30T15:17:46.110Z,95.20
2018-04-30T15:20:13.578Z,95.20
2018-04-30T15:22:41.054Z,95.30
2018-04-30T15:30:54.929Z,95.70
2018-04-30T15:33:22.392Z,95.30
2018-04-30T15:35:49.929Z,94.80
2018-04-30T15:38:17.348Z,94.40
2018-04-30T15:40:45.581Z,94.50
2018-04-30T15:43:13.037Z,94.40
2018-04-30T15:45:41.291Z,94.70
2018-04-30T15:48:08.744Z,94.80
2018-04-30T15:50:36.225Z,94.50
2018-04-30T15:53:03.728Z,94.60
2018-04-30T15:55:32.020Z,93.60
2018-04-30T15:57:59.673Z,93.80
2018-04-30T16:00:28.009Z,94.50
2018-04-30T16:02:55.476Z,94.40
2018-04-30T16:05:22.932Z,94.60
2018-04-30T16:07:50.402Z,94.80
2018-04-30T16:10:17.864Z,94.40
2018-04-30T16:12:45.329Z,93.70
2018-04-30T16:15:12.800Z,94.30
2018-04-30T16:17:41.032Z,93.50
2018-04-30T16:20:08.501Z,93.50
2018-04-30T16:22:35.969Z,94.00
2018-04-30T16:25:03.428Z,94.10
2018-04-30T16:27:30.897Z,93.90
2018-04-30T16:29:59.476Z,94.30
2018-04-30T16:32:26.953Z,94.10
2018-04-30T16:34:55.227Z,94.20
2018-04-30T16:37:23.460Z,94.50
2018-04-30T16:39:50.925Z,94.40
2018-04-30T16:42:18.408Z,94.40
2018-04-30T16:44:45.875Z,94.60
2018-04-30T16:47:13.449Z,96.50
2018-04-30T16:49:41.583Z,96.60
2018-04-30T16:52:09.057Z,96.60
2018-04-30T16:54:36.517Z,96.20
2018-04-30T16:57:03.991Z,96.50
2018-04-30T16:59:32.221Z,96.50
2018-04-30T17:01:59.969Z,96.10
2018-04-30T17:04:27.413Z,96.40
2018-04-30T17:06:54.890Z,97.10
2018-04-30T17:09:22.344Z,97.00
2018-04-30T17:11:51.114Z,96.80
2018-04-30T17:14:18.929Z,96.40
2018-04-30T17:16:46.407Z,96.20
2018-04-30T17:19:13.866Z,95.80
2018-04-30T17:21:43.588Z,93.60
2018-04-30T17:24:12.163Z,93.10
2018-04-30T17:26:39.641Z,93.10
2018-04-30T17:29:07.865Z,91.30
2018-04-30T17:31:42.953Z,91.20
2018-04-30T17:34:11.186Z,91.40
2018-04-30T17:36:38.649Z,91.40
2018-04-30T17:39:06.113Z,91.40
2018-04-30T17:41:33.582Z,91.30
2018-04-30T17:44:01.045Z,91.30
2018-04-30T17:46:28.516Z,91.30
2018-04-30T17:48:56.745Z,90.80
2018-04-30T17:51:24.219Z,90.70
2018-04-30T17:53:51.682Z,91.00
2018-04-30T17:56:19.166Z,90.60
2018-04-30T17:58:46.783Z,90.60
2018-04-30T18:01:14.125Z,90.70
2018-04-30T18:03:41.684Z,90.70
2018-04-30T18:06:09.141Z,90.30
2018-04-30T18:08:37.532Z,90.50
2018-04-30T18:11:04.998Z,90.60
2018-04-30T18:13:32.475Z,90.40
2018-04-30T18:15:59.929Z,90.50
2018-04-30T18:18:27.435Z,90.70
2018-04-30T18:20:55.652Z,90.20
2018-04-30T18:23:23.129Z,90.20
2018-04-30T18:25:50.580Z,90.60
2018-04-30T18:28:18.053Z,90.60
2018-04-30T18:30:45.504Z,90.40
2018-04-30T18:33:13.023Z,90.60
2018-04-30T18:35:40.433Z,90.80
2018-04-30T18:38:07.914Z,91.20
2018-04-30T18:40:36.140Z,90.90
2018-04-30T18:43:03.614Z,90.90
2018-04-30T18:48:25.146Z,91.50
2018-04-30T18:50:52.604Z,91.40
2018-04-30T18:53:20.077Z,91.20
2018-04-30T18:55:47.536Z,91.40
2018-04-30T18:58:15.012Z,91.60
2018-04-30T19:00:42.461Z,91.60
2018-04-30T19:03:09.923Z,91.70
2018-04-30T19:05:38.155Z,92.00
2018-04-30T19:08:05.701Z,92.00
2018-04-30T19:10:33.096Z,92.50
2018-04-30T19:13:00.629Z,92.30
2018-04-30T19:15:28.081Z,92.30
2018-04-30T19:17:55.555Z,92.40
2018-04-30T19:20:23.026Z,92.60
2018-04-30T19:22:50.488Z,92.50
2018-04-30T19:25:18.011Z,92.60
2018-04-30T19:27:45.474Z,92.90
2018-04-30T19:30:12.944Z,92.60
2018-04-30T19:32:40.417Z,92.80
2018-04-30T19:35:07.895Z,92.80
2018-04-30T19:37:35.360Z,92.90
2018-04-30T19:40:02.835Z,93.00
2018-04-30T19:42:31.057Z,93.20
2018-04-30T19:44:58.525Z,93.10
2018-04-30T19:47:25.988Z,93.20
2018-04-30T19:49:53.458Z,93.30
2018-04-30T19:52:20.958Z,93.30
2018-04-30T19:54:49.177Z,93.40
2018-04-30T19:57:16.649Z,93.40
2018-04-30T19:59:44.117Z,94.00
2018-04-30T20:02:11.589Z,94.80
2018-04-30T20:04:39.812Z,95.50
2018-04-30T20:07:07.273Z,95.50
2018-04-30T20:09:34.725Z,95.60
2018-04-30T20:12:02.569Z,95.40
2018-04-30T20:14:30.784Z,95.00
2018-04-30T20:16:58.289Z,95.00
2018-04-30T20:19:26.513Z,96.30
2018-04-30T20:21:53.973Z,96.20
2018-04-30T20:24:22.209Z,97.10
2018-04-30T20:26:50.446Z,96.90
2018-04-30T20:29:17.915Z,96.90
2018-04-30T20:31:45.379Z,96.80
2018-04-30T20:34:12.845Z,97.50
2018-04-30T20:36:40.305Z,97.30
2018-04-30T20:39:08.545Z,97.90
2018-04-30T20:41:36.009Z,97.70
2018-04-30T20:44:03.478Z,97.10
2018-04-30T20:46:30.945Z,96.90
2018-04-30T20:48:58.419Z,96.30
2018-04-30T20:51:26.646Z,95.30
2018-04-30T20:53:54.128Z,95.30
2018-04-30T20:56:21.589Z,96.20
2018-04-30T20:58:49.088Z,96.20
2018-04-30T21:01:16.517Z,96.00
2018-04-30T21:03:43.985Z,95.80
2018-04-30T21:06:12.266Z,96.20
2018-04-30T21:08:52.456Z,95.50
2018-04-30T21:11:19.919Z,95.40
2018-04-30T21:13:47.397Z,95.60
2018-04-30T21:16:15.235Z,95.30
2018-04-30T21:18:42.697Z,95.20
2018-04-30T21:21:10.153Z,95.10
2018-04-30T21:23:37.616Z,95.00
2018-04-30T21:26:05.108Z,95.00
2018-04-30T21:28:32.572Z,94.90
2018-04-30T21:31:01.549Z,94.90
2018-04-30T21:33:29.009Z,94.80
2018-04-30T21:35:57.229Z,94.90
2018-04-30T21:38:25.460Z,95.00
2018-04-30T21:40:52.913Z,94.90
2018-04-30T21:43:20.393Z,95.00
2018-04-30T21:45:47.852Z,95.10
2018-04-30T21:48:15.329Z,94.90
2018-04-30T21:50:43.548Z,95.00
2018-04-30T21:53:11.017Z,95.00
2018-04-30T21:55:38.486Z,95.30
2018-04-30T21:58:05.982Z,95.20
2018-04-30T22:00:33.510Z,95.30
2018-04-30T22:03:01.681Z,95.50
2018-04-30T22:05:29.161Z,95.50
2018-04-30T22:07:56.629Z,95.70
2018-04-30T22:10:24.849Z,95.60
2018-04-30T22:12:52.326Z,95.60
2018-04-30T22:15:19.789Z,95.60
2018-04-30T22:17:47.760Z,95.80
2018-04-30T22:20:15.196Z,95.80
2018-04-30T22:22:42.669Z,95.90
2018-04-30T22:25:10.124Z,95.90
2018-04-30T22:27:37.581Z,96.00
2018-04-30T22:30:05.053Z,96.00
2018-04-30T22:32:32.505Z,96.10
2018-04-30T22:34:59.968Z,95.50
2018-04-30T22:37:27.459Z,95.40
2018-04-30T22:39:54.927Z,95.20
2018-04-30T22:42:23.145Z,95.90
2018-04-30T22:44:50.722Z,95.90
2018-04-30T22:47:18.176Z,96.10
2018-04-30T22:49:45.646Z,96.40
2018-04-30T22:52:13.121Z,96.40
2018-04-30T22:54:40.594Z,96.50
2018-04-30T22:57:08.821Z,96.30
2018-04-30T22:59:36.325Z,96.30
2018-04-30T23:02:03.784Z,96.30
2018-04-30T23:04:32.025Z,96.40
2018-04-30T23:06:59.493Z,96.40
2018-04-30T23:09:26.993Z,96.30
2018-04-30T23:11:55.210Z,96.80
2018-04-30T23:14:22.705Z,96.80
2018-04-30T23:16:50.161Z,97.00
2018-04-30T23:19:17.973Z,97.30
2018-04-30T23:21:45.431Z,96.90
2018-04-30T23:24:13.032Z,96.80
2018-04-30T23:26:40.508Z,96.90
2018-04-30T23:29:07.972Z,96.70
2018-04-30T23:31:36.219Z,96.70
2018-04-30T23:34:03.693Z,96.50
2018-04-30T23:36:31.242Z,96.50
2018-04-30T23:38:58.705Z,96.50
2018-04-30T23:41:26.174Z,96.20
2018-04-30T23:43:54.402Z,95.90
2018-04-30T23:46:21.894Z,95.90
2018-04-30T23:48:49.360Z,95.80
2018-04-30T23:51:17.618Z,95.70
2018-04-30T23:53:45.084Z,95.70
2018-04-30T23:56:12.550Z,95.60
2018-04-30T23:58:40.113Z,95.70
